Time;durP1;ratioP1;P1;durP2;ratioP2;P2;SDS_P1;SDS_P2;PMS_P1;PMS_P2;Temp;Humidity;BMP_temperature;BMP_pressure;BME280_temperature;BME280_humidity;BME280_pressure;Samples;Min_cycle;Max_cycle;Signal;HPM_P1;HPM_P2
2021/03/04 00:09:45;;;;;;;103.33;56.47;;;;;;;1.71;100.00;100568.19;20781497;28;20223;-58
2021/03/04 00:19:45;;;;;;;116.33;61.50;;;;;;;1.98;100.00;100557.91;20801277;28;20220;-58
2021/03/04 00:29:46;;;;;;;83.67;51.40;;;;;;;2.33;100.00;100536.78;20789189;28;20266;-58
2021/03/04 00:39:46;;;;;;;87.83;55.10;;;;;;;2.50;100.00;100521.38;20817152;28;20218;-58
2021/03/04 00:49:47;;;;;;;73.70;46.83;;;;;;;2.85;100.00;100507.19;20799510;28;20747;-59
2021/03/04 00:59:47;;;;;;;82.60;48.83;;;;;;;2.99;100.00;100475.16;20775362;28;20343;-62
2021/03/04 01:09:48;;;;;;;67.87;43.53;;;;;;;3.13;100.00;100472.09;20805898;28;20459;-59
2021/03/04 01:19:48;;;;;;;64.13;42.13;;;;;;;2.85;100.00;100451.00;20802763;28;20236;-58
2021/03/04 01:29:49;;;;;;;67.63;43.03;;;;;;;2.73;100.00;100454.84;20808091;28;20297;-58
2021/03/04 01:39:49;;;;;;;60.60;37.10;;;;;;;2.49;100.00;100438.00;20792477;28;20231;-58
2021/03/04 01:49:50;;;;;;;61.50;39.20;;;;;;;2.40;100.00;100429.53;20811431;28;20240;-58
2021/03/04 01:59:50;;;;;;;72.17;44.40;;;;;;;2.47;100.00;100409.97;20771702;28;20409;-58
2021/03/04 02:10:08;;;;;;;67.07;42.80;;;;;;;2.49;100.00;100393.22;20805194;28;20213;-58
2021/03/04 02:20:25;;;;;;;53.07;35.33;;;;;;;2.68;100.00;100374.22;20773680;28;20220;-58
2021/03/04 02:30:34;;;;;;;62.17;38.70;;;;;;;2.65;100.00;100384.88;20806307;28;20216;-58
2021/03/04 02:40:36;;;;;;;57.73;36.23;;;;;;;2.57;100.00;100356.13;20795328;28;20236;-58
2021/03/04 02:50:37;;;;;;;55.17;33.07;;;;;;;2.71;100.00;100343.38;20781599;28;20220;-58
2021/03/04 03:00:45;;;;;;;52.83;33.23;;;;;;;2.79;100.00;100343.13;20780439;28;20258;-60
2021/03/04 03:10:47;;;;;;;46.93;30.30;;;;;;;2.68;100.00;100332.06;20773209;28;20230;-58
2021/03/04 03:20:47;;;;;;;49.00;31.23;;;;;;;2.56;100.00;100316.66;20804351;28;20289;-59
2021/03/04 03:30:48;;;;;;;48.70;30.30;;;;;;;2.42;100.00;100299.50;20766559;28;20216;-67
2021/03/04 03:40:50;;;;;;;44.67;28.07;;;;;;;2.17;100.00;100282.78;20801667;28;20592;-58
2021/03/04 03:50:57;;;;;;;43.77;27.80;;;;;;;2.13;100.00;100273.22;20765377;28;20278;-65
2021/03/04 04:00:58;;;;;;;42.23;26.70;;;;;;;2.07;100.00;100252.34;20800094;28;20225;-58
2021/03/04 04:10:58;;;;;;;44.37;29.77;;;;;;;2.22;100.00;100264.19;20781442;28;20274;-64
2021/03/04 04:20:59;;;;;;;42.33;25.90;;;;;;;2.36;100.00;100256.72;20789302;28;20858;-58
2021/03/04 04:30:59;;;;;;;46.30;29.57;;;;;;;2.36;100.00;100252.31;20773356;28;20219;-59
2021/03/04 04:41:00;;;;;;;43.73;27.73;;;;;;;2.33;100.00;100228.72;20787598;28;20700;-58
2021/03/04 04:51:00;;;;;;;46.33;29.23;;;;;;;2.15;100.00;100226.69;20782410;28;20220;-58
2021/03/04 05:01:01;;;;;;;45.73;28.10;;;;;;;2.24;100.00;100215.84;20778633;28;20229;-59
2021/03/04 05:11:08;;;;;;;47.17;28.93;;;;;;;2.62;100.00;100208.47;20802464;28;20221;-58
2021/03/04 05:21:08;;;;;;;42.03;28.77;;;;;;;2.91;100.00;100189.88;20824130;28;20237;-58
2021/03/04 05:31:09;;;;;;;37.27;25.30;;;;;;;3.05;100.00;100178.84;20810394;28;20224;-64
2021/03/04 05:41:10;;;;;;;40.37;27.53;;;;;;;2.97;100.00;100178.25;20795700;28;20314;-56
2021/03/04 05:51:15;;;;;;;46.57;28.43;;;;;;;2.77;100.00;100166.66;20809082;28;20220;-58
2021/03/04 06:01:16;;;;;;;46.90;29.83;;;;;;;2.85;100.00;100171.66;20790712;28;20863;-57
2021/03/04 06:11:23;;;;;;;62.87;37.40;;;;;;;3.30;100.00;100174.41;20792869;28;20225;-64
2021/03/04 06:21:28;;;;;;;45.97;30.50;;;;;;;3.35;100.00;100161.91;20770694;28;20233;-62
2021/03/04 06:31:28;;;;;;;44.40;28.63;;;;;;;3.96;100.00;100170.13;20779131;28;20230;-61
2021/03/04 06:41:35;;;;;;;37.50;26.83;;;;;;;4.32;100.00;100188.91;20790439;28;20245;-62
2021/03/04 06:51:45;;;;;;;38.57;27.40;;;;;;;4.42;99.63;100189.38;20786138;28;20233;-61
2021/03/04 07:01:46;;;;;;;39.97;27.67;;;;;;;4.63;99.45;100191.13;20787519;28;20258;-61
2021/03/04 07:11:46;;;;;;;46.17;30.07;;;;;;;4.74;99.03;100188.03;20793309;28;20307;-60
2021/03/04 07:21:51;;;;;;;43.90;31.20;;;;;;;4.85;98.91;100184.00;20783003;28;20220;-64
2021/03/04 07:31:51;;;;;;;46.90;32.83;;;;;;;4.99;99.16;100186.91;20770100;28;20277;-61
2021/03/04 07:41:52;;;;;;;42.60;31.20;;;;;;;5.12;98.22;100192.53;20802883;28;20224;-62
2021/03/04 07:51:52;;;;;;;42.80;30.30;;;;;;;5.28;97.58;100190.94;20782101;28;20310;-63
2021/03/04 08:01:57;;;;;;;49.00;32.83;;;;;;;5.52;96.53;100175.72;20801050;28;20225;-61
2021/03/04 08:12:07;;;;;;;43.50;32.87;;;;;;;5.89;93.66;100201.38;20765896;28;20459;-61
2021/03/04 08:22:08;;;;;;;45.30;34.30;;;;;;;5.80;90.82;100191.16;20799596;28;20236;-61
2021/03/04 08:32:12;;;;;;;44.10;33.57;;;;;;;5.92;89.06;100227.69;20770391;28;20220;-61
2021/03/04 08:42:13;;;;;;;51.70;38.10;;;;;;;5.52;89.30;100217.22;20776160;28;20255;-61
2021/03/04 08:52:19;;;;;;;53.20;42.23;;;;;;;5.61;90.23;100241.47;20786560;28;20242;-71
2021/03/04 09:02:26;;;;;;;59.00;44.37;;;;;;;5.40;89.37;100251.25;20801060;28;20926;-61
2021/03/04 09:12:27;;;;;;;53.27;40.47;;;;;;;5.43;88.59;100274.06;20814934;28;20559;-61
2021/03/04 09:22:30;;;;;;;54.00;38.77;;;;;;;5.27;87.66;100265.94;20775942;28;20303;-61
2021/03/04 09:32:32;;;;;;;52.67;37.50;;;;;;;5.03;87.62;100282.84;20780061;28;20213;-60
2021/03/04 09:42:38;;;;;;;44.83;34.33;;;;;;;4.96;85.49;100260.22;20792197;28;20238;-64
2021/03/04 09:52:38;;;;;;;46.53;35.47;;;;;;;5.24;85.39;100279.28;20794111;28;20214;-61
2021/03/04 10:02:45;;;;;;;39.47;30.73;;;;;;;4.97;83.72;100277.78;20793902;28;20870;-61
2021/03/04 10:12:56;;;;;;;39.60;29.80;;;;;;;4.85;83.69;100289.75;20804177;28;20249;-63
2021/03/04 10:22:57;;;;;;;40.73;29.37;;;;;;;4.74;83.50;100285.81;20800239;28;20287;-61
2021/03/04 10:32:59;;;;;;;38.33;28.83;;;;;;;4.59;85.01;100309.31;20797417;28;20573;-61
2021/03/04 10:43:00;;;;;;;35.73;26.20;;;;;;;4.43;86.05;100310.84;20768980;28;20231;-59
2021/03/04 10:53:00;;;;;;;32.60;25.30;;;;;;;4.29;86.95;100310.53;20714229;28;20789;-58
2021/03/04 11:03:01;;;;;;;40.33;29.23;;;;;;;4.22;87.19;100299.34;20747661;28;20491;-56
2021/03/04 11:13:01;;;;;;;33.63;23.90;;;;;;;4.18;87.78;100302.16;20717188;28;20226;-55
2021/03/04 11:23:03;;;;;;;34.53;24.33;;;;;;;4.33;86.46;100307.72;20745131;28;20881;-56
2021/03/04 11:33:04;;;;;;;31.73;22.83;;;;;;;4.27;86.41;100302.66;20733367;28;20471;-55
2021/03/04 11:43:04;;;;;;;34.43;23.80;;;;;;;4.18;88.12;100296.88;20727718;28;20557;-56
2021/03/04 11:53:06;;;;;;;36.40;23.17;;;;;;;3.93;88.75;100295.16;20738802;28;20218;-57
2021/03/04 12:03:06;;;;;;;35.80;22.33;;;;;;;3.79;90.75;100300.09;20736736;28;20265;-55
2021/03/04 12:13:07;;;;;;;35.53;22.70;;;;;;;3.59;90.71;100282.34;20778287;28;20261;-56
2021/03/04 12:23:08;;;;;;;30.47;21.17;;;;;;;3.71;90.33;100296.88;20709499;28;20543;-55
2021/03/04 12:33:08;;;;;;;26.77;18.33;;;;;;;4.12;89.75;100275.97;20771145;28;20227;-55
2021/03/04 12:43:10;;;;;;;26.30;18.07;;;;;;;4.67;86.68;100270.22;20731577;28;20230;-56
2021/03/04 12:53:10;;;;;;;27.60;19.17;;;;;;;4.80;85.24;100259.16;20768637;28;20969;-61
2021/03/04 13:03:12;;;;;;;23.17;18.03;;;;;;;5.27;85.35;100244.75;20749656;28;20243;-56
2021/03/04 13:13:14;;;;;;;26.23;19.87;;;;;;;5.22;83.65;100230.88;20755849;28;20330;-56
2021/03/04 13:23:14;;;;;;;34.47;24.17;;;;;;;5.02;84.99;100250.25;20724348;28;20221;-56
2021/03/04 13:33:15;;;;;;;32.60;21.93;;;;;;;4.52;85.92;100264.69;20736024;28;20232;-56
2021/03/04 13:43:16;;;;;;;35.13;23.73;;;;;;;4.08;84.92;100246.19;20760408;28;20783;-62
2021/03/04 13:53:17;;;;;;;40.60;26.67;;;;;;;3.75;86.63;100272.06;20747407;28;20226;-55
2021/03/04 14:03:17;;;;;;;40.20;26.73;;;;;;;3.58;88.30;100271.84;20763290;28;20260;-59
2021/03/04 14:13:17;;;;;;;34.33;23.47;;;;;;;3.56;88.64;100260.50;20743207;28;20257;-59
2021/03/04 14:23:19;;;;;;;32.50;22.30;;;;;;;3.56;86.81;100260.50;20761710;28;20248;-61
2021/03/04 14:33:19;;;;;;;25.00;17.47;;;;;;;3.32;86.15;100235.88;20741289;28;20264;-66
2021/03/04 14:43:20;;;;;;;27.33;17.73;;;;;;;3.26;86.06;100252.75;20750556;28;20871;-57
2021/03/04 14:53:21;;;;;;;19.73;13.98;;;;;;;3.09;85.03;100267.47;20741607;28;20471;-68
2021/03/04 15:03:22;;;;;;;13.90;10.80;;;;;;;2.99;85.11;100268.69;20730470;28;20334;-64
2021/03/04 15:13:22;;;;;;;16.27;11.07;;;;;;;2.79;86.65;100261.44;20721955;28;20734;-68
2021/03/04 15:23:23;;;;;;;12.37;9.20;;;;;;;2.66;87.70;100271.50;20732783;28;20402;-63
2021/03/04 15:33:24;;;;;;;13.00;8.97;;;;;;;2.58;87.77;100268.28;20774288;28;20257;-59
2021/03/04 15:43:25;;;;;;;12.50;8.80;;;;;;;2.58;87.24;100262.16;20781303;28;20220;-57
2021/03/04 15:53:25;;;;;;;13.30;9.53;;;;;;;2.48;88.37;100270.34;20798419;28;20278;-57
2021/03/04 16:03:26;;;;;;;9.23;7.70;;;;;;;2.48;88.39;100267.72;20762084;28;20308;-59
2021/03/04 16:13:26;;;;;;;13.77;9.87;;;;;;;2.42;88.43;100267.91;20788229;28;20740;-61
2021/03/04 16:23:27;;;;;;;12.57;8.73;;;;;;;2.41;88.26;100268.84;20771100;28;20281;-56
2021/03/04 16:33:27;;;;;;;13.30;9.80;;;;;;;2.45;87.79;100278.34;20792203;28;20224;-61
2021/03/04 16:43:35;;;;;;;13.50;9.93;;;;;;;2.46;87.28;100284.47;20795031;28;20308;-54
2021/03/04 16:53:35;;;;;;;10.47;7.87;;;;;;;2.47;88.24;100287.06;20766517;28;20225;-57
2021/03/04 17:03:36;;;;;;;11.27;9.03;;;;;;;2.47;88.75;100289.69;20798276;28;20728;-57
2021/03/04 17:13:36;;;;;;;13.93;9.77;;;;;;;2.50;89.23;100292.25;20789634;28;20251;-57
2021/03/04 17:23:43;;;;;;;21.03;12.30;;;;;;;2.52;89.69;100289.56;20801483;28;21384;-54
2021/03/04 17:33:44;;;;;;;18.13;11.90;;;;;;;2.44;89.90;100286.28;20792279;28;20996;-61
2021/03/04 17:43:44;;;;;;;23.77;15.93;;;;;;;2.26;90.21;100276.34;20788201;28;20737;-55
2021/03/04 17:53:45;;;;;;;18.83;14.67;;;;;;;2.28;89.61;100278.03;20797763;28;20224;-57
2021/03/04 18:03:46;;;;;;;43.93;24.97;;;;;;;2.25;88.98;100285.16;20800544;28;20275;-55
2021/03/04 18:13:50;;;;;;;36.17;23.00;;;;;;;2.26;89.44;100284.25;20802265;28;20225;-59
2021/03/04 18:23:50;;;;;;;26.23;19.23;;;;;;;2.28;90.25;100274.53;20795730;28;20782;-62
2021/03/04 18:33:51;;;;;;;24.13;18.03;;;;;;;2.27;90.72;100278.94;20800277;28;20220;-54
2021/03/04 18:43:52;;;;;;;25.30;18.10;;;;;;;2.28;91.92;100264.88;20762208;28;20693;-54
2021/03/04 18:53:52;;;;;;;26.17;18.73;;;;;;;2.27;91.43;100265.78;20805319;28;21007;-59
2021/03/04 19:03:53;;;;;;;31.87;20.83;;;;;;;2.30;91.51;100264.78;20818967;28;20231;-57
2021/03/04 19:13:53;;;;;;;23.47;17.77;;;;;;;2.28;92.77;100270.13;20855568;28;20224;-58
2021/03/04 19:23:54;;;;;;;18.50;14.77;;;;;;;2.19;92.28;100275.66;20750736;28;20486;-57
2021/03/04 19:33:56;;;;;;;20.52;15.57;;;;;;;2.07;94.15;100271.63;20662171;28;20779;-60
2021/03/04 19:43:56;;;;;;;17.77;13.47;;;;;;;1.97;95.23;100258.81;20640434;28;20304;-57
2021/03/04 19:53:57;;;;;;;18.40;13.07;;;;;;;1.94;97.25;100274.69;20653680;28;20237;-56
2021/03/04 20:03:58;;;;;;;17.50;13.50;;;;;;;1.95;96.42;100268.50;20659863;28;20283;-56
2021/03/04 20:14:01;;;;;;;19.37;13.93;;;;;;;1.86;96.23;100234.59;20622718;28;20221;-55
2021/03/04 20:24:02;;;;;;;17.60;13.30;;;;;;;1.94;97.06;100259.75;20656374;28;20236;-55
2021/03/04 20:34:04;;;;;;;18.33;13.03;;;;;;;1.83;99.15;100269.72;20634221;28;20748;-55
2021/03/04 20:44:11;;;;;;;24.80;16.50;;;;;;;1.76;100.00;100284.84;20718357;28;20232;-61
2021/03/04 20:54:11;;;;;;;22.93;15.90;;;;;;;1.69;100.00;100299.06;20714241;28;20443;-60
2021/03/04 21:04:12;;;;;;;26.40;16.90;;;;;;;1.56;100.00;100274.06;20717645;28;20232;-70
2021/03/04 21:14:12;;;;;;;26.10;17.10;;;;;;;1.63;100.00;100274.72;20724428;28;20466;-65
2021/03/04 21:24:13;;;;;;;24.20;17.97;;;;;;;1.62;100.00;100283.50;20715989;28;20347;-56
2021/03/04 21:34:13;;;;;;;29.93;21.33;;;;;;;1.64;100.00;100293.09;20720241;28;20765;-60
2021/03/04 21:44:13;;;;;;;21.93;15.20;;;;;;;1.41;100.00;100301.63;20711782;28;20225;-56
2021/03/04 21:54:14;;;;;;;20.60;13.77;;;;;;;1.19;100.00;100315.38;20729632;28;20264;-59
2021/03/04 22:04:14;;;;;;;19.50;13.93;;;;;;;1.00;100.00;100307.97;20690884;28;20221;-65
2021/03/04 22:14:15;;;;;;;18.03;12.27;;;;;;;0.97;100.00;100315.91;20710987;28;20221;-59
2021/03/04 22:24:15;;;;;;;15.47;10.50;;;;;;;0.93;100.00;100324.78;20693447;28;20213;-60
2021/03/04 22:34:16;;;;;;;12.87;7.70;;;;;;;0.88;100.00;100334.53;20722418;28;20385;-55
2021/03/04 22:44:16;;;;;;;10.47;6.27;;;;;;;0.79;100.00;100341.78;20698126;28;20926;-62
2021/03/04 22:54:17;;;;;;;13.40;6.70;;;;;;;0.74;100.00;100355.00;20713591;28;20791;-55
2021/03/04 23:04:25;;;;;;;11.37;6.53;;;;;;;0.70;100.00;100359.50;20716441;28;20312;-56
2021/03/04 23:14:25;;;;;;;9.40;6.93;;;;;;;0.63;100.00;100372.78;20707170;28;20252;-54
2021/03/04 23:24:31;;;;;;;10.82;5.68;;;;;;;0.57;100.00;100376.44;20723187;28;20287;-56
2021/03/04 23:34:36;;;;;;;7.70;4.87;;;;;;;0.56;100.00;100379.09;20700241;28;20308;-59
2021/03/04 23:44:43;;;;;;;9.07;4.90;;;;;;;0.58;100.00;100390.41;20721826;28;20229;-55
2021/03/04 23:54:43;;;;;;;10.60;5.40;;;;;;;0.55;100.00;100400.97;20698186;28;20793;-63
